CheckWX is a tool to help pilots better visualize weather data.  It is not intended as a substitute for an official pre-flight weather briefing.

17:27:35 UTC

FAOR TAF
Olifants River Bridge Landing Strip Airport
Olifants River Bridge, South Africa
TAF AMD FAOR 241500Z 2412/2518 32012KT 9999 SCT035 TX27/2513Z TN15/2504Z PROB30 TEMPO 2415/2417 -TSRA FEW045CB BECMG 2416/2418 22015KT BECMG 2418/2420 VRB03KT CAVOK BECMG 2507/2509 30010KT SCT040 BECMG 2511/2513 23015KT PROB30 TEMPO 2516/2518 FEW045TCU

Mar-24@
12:00 UTC

Mar-24 @ 12:00 UTC

Mar-24@
16:00 UTC

Mar-24 @ 16:00 UTC

TAF AMD FAOR 241500Z 2412/2518 32012KT 9999 SCT035 TX27/2513Z TN15/2504Z

Expired

Wind
  • 320° at 12 KTS
Cloud Levels
  • Scattered at 3,500' AGL

Mar-24@
15:00 UTC

Mar-24 @ 15:00 UTC

Mar-24@
17:00 UTC

Mar-24 @ 17:00 UTC

PROB30 TEMPO 2415/2417 -TSRA FEW045CB

Expired

Conditions
Light Thunderstorm, Light Rain
Cloud Levels
  • Few at 4,500' AGL

Mar-24@
16:00 UTC

Mar-24 @ 16:00 UTC

Mar-24@
18:00 UTC

Mar-24 @ 18:00 UTC

BECMG 2416/2418 22015KT

Becoming

Becoming Conditions expected by Sun, Mar 24, 2019 @ 18:00 UTC

Wind
  • 220° at 15 KTS
Cloud Levels
  • Scattered at 3,500' AGL

Mar-24@
18:00 UTC

Mar-24 @ 18:00 UTC

Mar-25@
07:00 UTC

Mar-25 @ 07:00 UTC

BECMG 2418/2420 VRB03KT CAVOK

Becoming

Becoming Conditions expected by Sun, Mar 24, 2019 @ 20:00 UTC

Wind
  • Variable at 3 KTS
Conditions
No significant weather
Cloud Levels
  • No significant clouds

Mar-25@
07:00 UTC

Mar-25 @ 07:00 UTC

Mar-25@
11:00 UTC

Mar-25 @ 11:00 UTC

BECMG 2507/2509 30010KT SCT040

Becoming

Becoming Conditions expected by Mon, Mar 25, 2019 @ 09:00 UTC

Wind
  • 300° at 10 KTS
Conditions
No significant weather
Cloud Levels
  • Scattered at 4,000' AGL

Mar-25@
11:00 UTC

Mar-25 @ 11:00 UTC

Mar-25@
18:00 UTC

Mar-25 @ 18:00 UTC

BECMG 2511/2513 23015KT

Becoming

Becoming Conditions expected by Mon, Mar 25, 2019 @ 13:00 UTC

Wind
  • 230° at 15 KTS
Conditions
No significant weather
Cloud Levels
  • Scattered at 4,000' AGL

Mar-25@
16:00 UTC

Mar-25 @ 16:00 UTC

Mar-25@
18:00 UTC

Mar-25 @ 18:00 UTC

PROB30 TEMPO 2516/2518 FEW045TCU

Temporary - 30% Likelihood

Temporary - 30% Likelihood during this time.

Cloud Levels
  • Few at 4,500' AGL